sensor_id;sensor_type;location;lat;lon;timestamp;temperature;humidity
20068;DHT22;10194;50.824;7.134;2023-03-14T00:00:05;10.80;99.90
20068;DHT22;10194;50.824;7.134;2023-03-14T00:02:36;10.70;99.90
20068;DHT22;10194;50.824;7.134;2023-03-14T00:05:02;10.70;99.90
20068;DHT22;10194;50.824;7.134;2023-03-14T00:07:35;10.80;99.90
20068;DHT22;10194;50.824;7.134;2023-03-14T00:10:04;10.80;99.90
20068;DHT22;10194;50.824;7.134;2023-03-14T00:12:32;10.80;99.90
20068;DHT22;10194;50.824;7.134;2023-03-14T00:14:57;10.80;99.90
20068;DHT22;10194;50.824;7.134;2023-03-14T00:17:26;10.90;99.90
20068;DHT22;10194;50.824;7.134;2023-03-14T00:19:52;10.80;99.90
20068;DHT22;10194;50.824;7.134;2023-03-14T00:22:20;10.70;99.90
20068;DHT22;10194;50.824;7.134;2023-03-14T00:24:46;10.80;99.90
20068;DHT22;10194;50.824;7.134;2023-03-14T00:27:12;10.80;99.90
20068;DHT22;10194;50.824;7.134;2023-03-14T00:29:38;10.80;99.90
20068;DHT22;10194;50.824;7.134;2023-03-14T00:32:04;10.80;99.90
20068;DHT22;10194;50.824;7.134;2023-03-14T00:34:31;10.80;99.90
20068;DHT22;10194;50.824;7.134;2023-03-14T00:36:59;10.90;99.90
20068;DHT22;10194;50.824;7.134;2023-03-14T00:39:24;11.00;99.90
20068;DHT22;10194;50.824;7.134;2023-03-14T00:41:50;11.00;99.90
20068;DHT22;10194;50.824;7.134;2023-03-14T00:44:16;11.00;99.90
20068;DHT22;10194;50.824;7.134;2023-03-14T00:46:41;11.10;99.90
20068;DHT22;10194;50.824;7.134;2023-03-14T00:49:07;11.20;99.90
20068;DHT22;10194;50.824;7.134;2023-03-14T00:51:33;11.30;99.90
20068;DHT22;10194;50.824;7.134;2023-03-14T00:54:00;11.30;99.90
20068;DHT22;10194;50.824;7.134;2023-03-14T00:56:25;11.30;99.90
20068;DHT22;10194;50.824;7.134;2023-03-14T00:58:55;11.30;99.90
20068;DHT22;10194;50.824;7.134;2023-03-14T01:01:21;11.30;99.90
20068;DHT22;10194;50.824;7.134;2023-03-14T01:03:50;11.30;99.90
20068;DHT22;10194;50.824;7.134;2023-03-14T01:06:20;11.40;99.90
20068;DHT22;10194;50.824;7.134;2023-03-14T01:08:47;11.50;99.90
20068;DHT22;10194;50.824;7.134;2023-03-14T01:11:16;11.50;99.90
20068;DHT22;10194;50.824;7.134;2023-03-14T01:13:43;11.50;99.90
20068;DHT22;10194;50.824;7.134;2023-03-14T01:16:11;11.50;99.90
20068;DHT22;10194;50.824;7.134;2023-03-14T01:18:39;11.60;99.90
20068;DHT22;10194;50.824;7.134;2023-03-14T01:21:15;11.60;99.90
20068;DHT22;10194;50.824;7.134;2023-03-14T01:23:41;11.50;99.90
20068;DHT22;10194;50.824;7.134;2023-03-14T01:26:17;11.50;99.90
20068;DHT22;10194;50.824;7.134;2023-03-14T01:28:47;11.50;99.90
20068;DHT22;10194;50.824;7.134;2023-03-14T01:31:13;11.50;99.90
20068;DHT22;10194;50.824;7.134;2023-03-14T01:33:40;11.50;99.90
20068;DHT22;10194;50.824;7.134;2023-03-14T01:36:07;11.50;99.90
20068;DHT22;10194;50.824;7.134;2023-03-14T01:38:34;11.40;99.90
20068;DHT22;10194;50.824;7.134;2023-03-14T01:41:01;11.40;99.90
20068;DHT22;10194;50.824;7.134;2023-03-14T01:43:28;11.30;99.90
20068;DHT22;10194;50.824;7.134;2023-03-14T01:48:36;11.10;99.90
20068;DHT22;10194;50.824;7.134;2023-03-14T01:51:08;11.10;99.90
20068;DHT22;10194;50.824;7.134;2023-03-14T01:53:36;11.10;99.90
20068;DHT22;10194;50.824;7.134;2023-03-14T01:56:02;11.00;99.90
20068;DHT22;10194;50.824;7.134;2023-03-14T01:58:30;11.00;99.90
20068;DHT22;10194;50.824;7.134;2023-03-14T02:01:01;10.90;99.90
20068;DHT22;10194;50.824;7.134;2023-03-14T02:03:30;11.00;99.90
20068;DHT22;10194;50.824;7.134;2023-03-14T02:06:00;10.90;99.90
20068;DHT22;10194;50.824;7.134;2023-03-14T02:08:31;10.90;99.90
20068;DHT22;10194;50.824;7.134;2023-03-14T02:10:56;10.70;99.90
20068;DHT22;10194;50.824;7.134;2023-03-14T02:13:22;10.30;99.90
20068;DHT22;10194;50.824;7.134;2023-03-14T02:15:48;10.00;99.90
20068;DHT22;10194;50.824;7.134;2023-03-14T02:18:15;9.80;99.90
20068;DHT22;10194;50.824;7.134;2023-03-14T02:20:53;9.60;99.90
20068;DHT22;10194;50.824;7.134;2023-03-14T02:26:44;9.40;99.90
20068;DHT22;10194;50.824;7.134;2023-03-14T02:29:32;9.30;99.90
20068;DHT22;10194;50.824;7.134;2023-03-14T02:31:59;9.10;99.90
20068;DHT22;10194;50.824;7.134;2023-03-14T02:34:25;9.10;99.90
20068;DHT22;10194;50.824;7.134;2023-03-14T02:36:52;9.00;99.90
20068;DHT22;10194;50.824;7.134;2023-03-14T02:39:24;9.00;99.90
20068;DHT22;10194;50.824;7.134;2023-03-14T02:41:53;8.90;99.90
20068;DHT22;10194;50.824;7.134;2023-03-14T02:44:19;8.90;99.90
20068;DHT22;10194;50.824;7.134;2023-03-14T02:46:45;8.80;99.90
20068;DHT22;10194;50.824;7.134;2023-03-14T02:49:13;8.70;99.90
20068;DHT22;10194;50.824;7.134;2023-03-14T02:51:40;8.60;99.90
20068;DHT22;10194;50.824;7.134;2023-03-14T02:54:07;8.60;99.90
20068;DHT22;10194;50.824;7.134;2023-03-14T02:56:33;8.50;99.90
20068;DHT22;10194;50.824;7.134;2023-03-14T02:59:01;8.40;99.90
20068;DHT22;10194;50.824;7.134;2023-03-14T03:01:28;8.40;99.90
20068;DHT22;10194;50.824;7.134;2023-03-14T03:03:54;8.30;99.90
20068;DHT22;10194;50.824;7.134;2023-03-14T03:06:19;8.30;99.90
20068;DHT22;10194;50.824;7.134;2023-03-14T03:08:45;8.30;99.90
20068;DHT22;10194;50.824;7.134;2023-03-14T03:11:11;8.30;99.90
20068;DHT22;10194;50.824;7.134;2023-03-14T03:13:36;8.30;99.90
20068;DHT22;10194;50.824;7.134;2023-03-14T03:16:03;8.30;99.90
20068;DHT22;10194;50.824;7.134;2023-03-14T03:18:29;8.30;99.90
20068;DHT22;10194;50.824;7.134;2023-03-14T03:20:54;8.40;99.90
20068;DHT22;10194;50.824;7.134;2023-03-14T03:23:20;8.30;99.90
20068;DHT22;10194;50.824;7.134;2023-03-14T03:25:49;8.40;99.90
20068;DHT22;10194;50.824;7.134;2023-03-14T03:28:17;8.40;99.90
20068;DHT22;10194;50.824;7.134;2023-03-14T03:30:43;8.40;99.90
20068;DHT22;10194;50.824;7.134;2023-03-14T03:33:10;8.50;99.90
20068;DHT22;10194;50.824;7.134;2023-03-14T03:35:47;8.50;99.90
20068;DHT22;10194;50.824;7.134;2023-03-14T03:38:15;8.60;99.90
20068;DHT22;10194;50.824;7.134;2023-03-14T03:40:41;8.70;99.90
20068;DHT22;10194;50.824;7.134;2023-03-14T03:43:07;8.70;99.90
20068;DHT22;10194;50.824;7.134;2023-03-14T03:45:32;8.70;99.90
20068;DHT22;10194;50.824;7.134;2023-03-14T03:47:58;8.80;99.90
20068;DHT22;10194;50.824;7.134;2023-03-14T03:50:24;8.90;99.90
20068;DHT22;10194;50.824;7.134;2023-03-14T03:52:50;9.00;99.90
20068;DHT22;10194;50.824;7.134;2023-03-14T03:55:15;9.00;99.90
20068;DHT22;10194;50.824;7.134;2023-03-14T03:57:41;9.20;99.90
20068;DHT22;10194;50.824;7.134;2023-03-14T04:00:07;9.30;99.90
20068;DHT22;10194;50.824;7.134;2023-03-14T04:02:37;9.20;99.90
20068;DHT22;10194;50.824;7.134;2023-03-14T04:05:03;9.30;99.90
20068;DHT22;10194;50.824;7.134;2023-03-14T04:07:31;9.50;99.90
20068;DHT22;10194;50.824;7.134;2023-03-14T04:09:57;9.60;99.90
20068;DHT22;10194;50.824;7.134;2023-03-14T04:12:23;9.60;99.90
20068;DHT22;10194;50.824;7.134;2023-03-14T04:14:49;9.60;99.90
20068;DHT22;10194;50.824;7.134;2023-03-14T04:17:14;9.60;99.90
20068;DHT22;10194;50.824;7.134;2023-03-14T04:19:40;9.60;99.90
20068;DHT22;10194;50.824;7.134;2023-03-14T04:22:08;9.60;99.90
20068;DHT22;10194;50.824;7.134;2023-03-14T04:24:34;9.70;99.90
20068;DHT22;10194;50.824;7.134;2023-03-14T04:27:00;9.70;99.90
20068;DHT22;10194;50.824;7.134;2023-03-14T04:29:26;9.80;99.90
20068;DHT22;10194;50.824;7.134;2023-03-14T04:31:51;9.80;99.90
20068;DHT22;10194;50.824;7.134;2023-03-14T04:34:17;9.80;99.90
20068;DHT22;10194;50.824;7.134;2023-03-14T04:36:43;9.90;99.90
20068;DHT22;10194;50.824;7.134;2023-03-14T04:39:09;9.90;99.90
20068;DHT22;10194;50.824;7.134;2023-03-14T04:41:34;9.90;99.90
20068;DHT22;10194;50.824;7.134;2023-03-14T04:44:00;10.00;99.90
20068;DHT22;10194;50.824;7.134;2023-03-14T04:46:26;10.00;99.90
20068;DHT22;10194;50.824;7.134;2023-03-14T04:48:51;10.00;99.90
20068;DHT22;10194;50.824;7.134;2023-03-14T04:51:17;10.00;99.90
20068;DHT22;10194;50.824;7.134;2023-03-14T04:53:43;10.00;99.90
20068;DHT22;10194;50.824;7.134;2023-03-14T04:56:09;10.00;99.90
20068;DHT22;10194;50.824;7.134;2023-03-14T04:58:35;9.90;99.90
20068;DHT22;10194;50.824;7.134;2023-03-14T05:01:07;10.00;99.90
20068;DHT22;10194;50.824;7.134;2023-03-14T05:03:33;9.90;99.90
20068;DHT22;10194;50.824;7.134;2023-03-14T05:06:01;9.90;99.90
20068;DHT22;10194;50.824;7.134;2023-03-14T05:08:27;9.90;99.90
20068;DHT22;10194;50.824;7.134;2023-03-14T05:10:57;9.90;99.90
20068;DHT22;10194;50.824;7.134;2023-03-14T05:13:23;9.90;99.90
20068;DHT22;10194;50.824;7.134;2023-03-14T05:15:49;9.90;99.90
20068;DHT22;10194;50.824;7.134;2023-03-14T05:18:20;9.90;99.90
20068;DHT22;10194;50.824;7.134;2023-03-14T05:20:46;9.90;99.90
20068;DHT22;10194;50.824;7.134;2023-03-14T05:23:12;9.90;99.90
20068;DHT22;10194;50.824;7.134;2023-03-14T05:25:37;9.90;99.90
20068;DHT22;10194;50.824;7.134;2023-03-14T05:28:03;9.90;99.90
20068;DHT22;10194;50.824;7.134;2023-03-14T05:30:29;9.90;99.90
20068;DHT22;10194;50.824;7.134;2023-03-14T05:32:56;9.90;99.90
20068;DHT22;10194;50.824;7.134;2023-03-14T05:35:22;9.90;99.90
20068;DHT22;10194;50.824;7.134;2023-03-14T05:37:47;9.90;99.90
20068;DHT22;10194;50.824;7.134;2023-03-14T05:40:13;9.90;99.90
20068;DHT22;10194;50.824;7.134;2023-03-14T05:42:39;9.80;99.90
20068;DHT22;10194;50.824;7.134;2023-03-14T05:45:05;9.80;99.90
20068;DHT22;10194;50.824;7.134;2023-03-14T05:47:31;9.80;99.90
20068;DHT22;10194;50.824;7.134;2023-03-14T05:49:57;9.80;99.90
20068;DHT22;10194;50.824;7.134;2023-03-14T05:52:23;9.90;99.90
20068;DHT22;10194;50.824;7.134;2023-03-14T05:54:49;9.90;99.90
20068;DHT22;10194;50.824;7.134;2023-03-14T05:57:14;10.00;99.90
20068;DHT22;10194;50.824;7.134;2023-03-14T05:59:40;10.00;99.90
20068;DHT22;10194;50.824;7.134;2023-03-14T06:02:06;10.00;99.90
20068;DHT22;10194;50.824;7.134;2023-03-14T06:04:31;10.00;99.90
20068;DHT22;10194;50.824;7.134;2023-03-14T06:06:57;10.00;99.90
20068;DHT22;10194;50.824;7.134;2023-03-14T06:09:23;10.00;99.90
20068;DHT22;10194;50.824;7.134;2023-03-14T06:11:49;10.00;99.90
20068;DHT22;10194;50.824;7.134;2023-03-14T06:14:15;10.00;99.90
20068;DHT22;10194;50.824;7.134;2023-03-14T06:16:41;10.00;99.90
20068;DHT22;10194;50.824;7.134;2023-03-14T06:19:06;10.00;99.90
20068;DHT22;10194;50.824;7.134;2023-03-14T06:21:32;9.90;99.90
20068;DHT22;10194;50.824;7.134;2023-03-14T06:23:58;9.90;99.90
20068;DHT22;10194;50.824;7.134;2023-03-14T06:26:24;9.90;99.90
20068;DHT22;10194;50.824;7.134;2023-03-14T06:28:49;9.90;99.90
20068;DHT22;10194;50.824;7.134;2023-03-14T06:31:16;9.90;99.90
20068;DHT22;10194;50.824;7.134;2023-03-14T06:33:42;9.90;99.90
20068;DHT22;10194;50.824;7.134;2023-03-14T06:36:08;9.90;99.90
20068;DHT22;10194;50.824;7.134;2023-03-14T06:38:34;10.00;99.90
20068;DHT22;10194;50.824;7.134;2023-03-14T06:41:07;10.10;99.90
20068;DHT22;10194;50.824;7.134;2023-03-14T06:43:33;10.10;99.90
20068;DHT22;10194;50.824;7.134;2023-03-14T06:45:59;10.10;99.90
20068;DHT22;10194;50.824;7.134;2023-03-14T06:48:24;10.10;99.90
20068;DHT22;10194;50.824;7.134;2023-03-14T06:50:50;10.20;99.90
20068;DHT22;10194;50.824;7.134;2023-03-14T06:53:16;10.20;99.90
20068;DHT22;10194;50.824;7.134;2023-03-14T06:55:42;10.20;99.90
20068;DHT22;10194;50.824;7.134;2023-03-14T06:58:08;10.30;99.90
20068;DHT22;10194;50.824;7.134;2023-03-14T07:00:34;10.30;99.90
20068;DHT22;10194;50.824;7.134;2023-03-14T07:03:00;10.40;99.90
20068;DHT22;10194;50.824;7.134;2023-03-14T07:05:26;10.50;99.90
20068;DHT22;10194;50.824;7.134;2023-03-14T07:07:52;10.70;99.90
20068;DHT22;10194;50.824;7.134;2023-03-14T07:10:18;10.70;99.90
20068;DHT22;10194;50.824;7.134;2023-03-14T07:12:43;10.80;99.90
20068;DHT22;10194;50.824;7.134;2023-03-14T07:15:09;10.80;99.90
20068;DHT22;10194;50.824;7.134;2023-03-14T07:17:35;10.70;99.90
20068;DHT22;10194;50.824;7.134;2023-03-14T07:20:01;10.70;99.90
20068;DHT22;10194;50.824;7.134;2023-03-14T07:22:29;10.70;99.90
20068;DHT22;10194;50.824;7.134;2023-03-14T07:24:55;10.70;99.90
20068;DHT22;10194;50.824;7.134;2023-03-14T07:27:21;10.70;99.90
20068;DHT22;10194;50.824;7.134;2023-03-14T07:29:46;10.90;99.90
20068;DHT22;10194;50.824;7.134;2023-03-14T07:32:12;11.20;99.90
20068;DHT22;10194;50.824;7.134;2023-03-14T07:34:41;11.80;99.90
20068;DHT22;10194;50.824;7.134;2023-03-14T07:37:07;12.50;99.90
20068;DHT22;10194;50.824;7.134;2023-03-14T07:39:33;12.70;99.90
20068;DHT22;10194;50.824;7.134;2023-03-14T07:41:59;12.70;99.90
20068;DHT22;10194;50.824;7.134;2023-03-14T07:44:25;12.50;99.90
20068;DHT22;10194;50.824;7.134;2023-03-14T07:46:51;12.40;99.90
20068;DHT22;10194;50.824;7.134;2023-03-14T07:49:18;12.10;99.90
20068;DHT22;10194;50.824;7.134;2023-03-14T07:51:43;12.00;99.90
20068;DHT22;10194;50.824;7.134;2023-03-14T07:54:10;11.90;99.90
20068;DHT22;10194;50.824;7.134;2023-03-14T07:56:36;11.90;99.90
20068;DHT22;10194;50.824;7.134;2023-03-14T07:59:01;11.90;99.90
20068;DHT22;10194;50.824;7.134;2023-03-14T08:01:28;12.00;99.90
20068;DHT22;10194;50.824;7.134;2023-03-14T08:03:54;12.20;99.90
20068;DHT22;10194;50.824;7.134;2023-03-14T08:06:20;12.40;99.90
20068;DHT22;10194;50.824;7.134;2023-03-14T08:08:46;12.50;99.90
20068;DHT22;10194;50.824;7.134;2023-03-14T08:11:12;12.60;99.90
20068;DHT22;10194;50.824;7.134;2023-03-14T08:13:38;12.80;99.90
20068;DHT22;10194;50.824;7.134;2023-03-14T08:16:05;13.10;99.90
20068;DHT22;10194;50.824;7.134;2023-03-14T08:18:31;13.20;99.90
20068;DHT22;10194;50.824;7.134;2023-03-14T08:20:56;13.10;99.90
20068;DHT22;10194;50.824;7.134;2023-03-14T08:23:23;12.90;99.90
20068;DHT22;10194;50.824;7.134;2023-03-14T08:25:50;12.90;99.90
20068;DHT22;10194;50.824;7.134;2023-03-14T08:28:16;13.00;99.90
20068;DHT22;10194;50.824;7.134;2023-03-14T08:30:42;13.00;99.90
20068;DHT22;10194;50.824;7.134;2023-03-14T08:33:08;13.00;99.90
20068;DHT22;10194;50.824;7.134;2023-03-14T08:35:34;12.90;99.90
20068;DHT22;10194;50.824;7.134;2023-03-14T08:38:00;12.90;99.90
20068;DHT22;10194;50.824;7.134;2023-03-14T08:40:26;12.90;99.90
20068;DHT22;10194;50.824;7.134;2023-03-14T08:42:52;12.90;99.90
20068;DHT22;10194;50.824;7.134;2023-03-14T08:45:18;13.00;99.90
20068;DHT22;10194;50.824;7.134;2023-03-14T08:47:45;13.10;99.90
20068;DHT22;10194;50.824;7.134;2023-03-14T08:50:11;13.10;99.90
20068;DHT22;10194;50.824;7.134;2023-03-14T08:52:37;13.20;99.90
20068;DHT22;10194;50.824;7.134;2023-03-14T08:55:07;13.10;99.90
20068;DHT22;10194;50.824;7.134;2023-03-14T08:57:34;13.20;99.90
20068;DHT22;10194;50.824;7.134;2023-03-14T09:00:00;13.20;99.90
20068;DHT22;10194;50.824;7.134;2023-03-14T09:02:26;13.30;99.90
20068;DHT22;10194;50.824;7.134;2023-03-14T09:04:52;13.20;99.90
20068;DHT22;10194;50.824;7.134;2023-03-14T09:07:19;13.10;99.90
20068;DHT22;10194;50.824;7.134;2023-03-14T09:09:45;12.90;99.90
20068;DHT22;10194;50.824;7.134;2023-03-14T09:12:11;12.80;99.90
20068;DHT22;10194;50.824;7.134;2023-03-14T09:14:37;12.80;99.90
20068;DHT22;10194;50.824;7.134;2023-03-14T09:17:03;12.80;99.90
20068;DHT22;10194;50.824;7.134;2023-03-14T09:19:29;12.60;99.90
20068;DHT22;10194;50.824;7.134;2023-03-14T09:21:55;12.60;99.90
20068;DHT22;10194;50.824;7.134;2023-03-14T09:24:21;12.50;99.90
20068;DHT22;10194;50.824;7.134;2023-03-14T09:26:47;12.40;99.90
20068;DHT22;10194;50.824;7.134;2023-03-14T09:29:12;12.40;99.90
20068;DHT22;10194;50.824;7.134;2023-03-14T09:31:38;12.40;99.90
20068;DHT22;10194;50.824;7.134;2023-03-14T09:34:04;12.40;99.90
20068;DHT22;10194;50.824;7.134;2023-03-14T09:36:30;12.40;99.90
20068;DHT22;10194;50.824;7.134;2023-03-14T09:38:56;12.40;99.90
20068;DHT22;10194;50.824;7.134;2023-03-14T09:44:30;12.40;99.90
20068;DHT22;10194;50.824;7.134;2023-03-14T09:46:58;12.30;99.90
20068;DHT22;10194;50.824;7.134;2023-03-14T09:49:41;12.20;99.90
20068;DHT22;10194;50.824;7.134;2023-03-14T09:52:14;12.10;99.90
20068;DHT22;10194;50.824;7.134;2023-03-14T09:54:53;11.90;99.90
20068;DHT22;10194;50.824;7.134;2023-03-14T09:57:24;11.70;99.90
20068;DHT22;10194;50.824;7.134;2023-03-14T10:00:18;11.60;99.90
20068;DHT22;10194;50.824;7.134;2023-03-14T10:02:54;10.60;99.90
20068;DHT22;10194;50.824;7.134;2023-03-14T10:05:25;9.90;99.90
20068;DHT22;10194;50.824;7.134;2023-03-14T10:07:53;9.50;99.90
20068;DHT22;10194;50.824;7.134;2023-03-14T10:10:22;9.30;99.90
20068;DHT22;10194;50.824;7.134;2023-03-14T10:15:36;9.00;99.90
20068;DHT22;10194;50.824;7.134;2023-03-14T10:18:04;8.80;99.90
20068;DHT22;10194;50.824;7.134;2023-03-14T10:20:43;8.60;99.90
20068;DHT22;10194;50.824;7.134;2023-03-14T10:25:42;8.60;99.90
20068;DHT22;10194;50.824;7.134;2023-03-14T10:28:25;8.70;99.90
20068;DHT22;10194;50.824;7.134;2023-03-14T10:31:14;8.70;99.90
20068;DHT22;10194;50.824;7.134;2023-03-14T10:33:41;8.70;99.90
20068;DHT22;10194;50.824;7.134;2023-03-14T10:36:33;8.70;99.90
20068;DHT22;10194;50.824;7.134;2023-03-14T10:42:21;8.80;99.90
20068;DHT22;10194;50.824;7.134;2023-03-14T10:44:55;8.70;99.90
20068;DHT22;10194;50.824;7.134;2023-03-14T10:47:24;8.60;99.90
20068;DHT22;10194;50.824;7.134;2023-03-14T10:49:54;8.50;99.90
20068;DHT22;10194;50.824;7.134;2023-03-14T10:52:26;8.40;99.90
20068;DHT22;10194;50.824;7.134;2023-03-14T10:55:09;8.40;99.90
20068;DHT22;10194;50.824;7.134;2023-03-14T10:57:43;8.40;99.90
20068;DHT22;10194;50.824;7.134;2023-03-14T11:00:19;8.40;99.90
20068;DHT22;10194;50.824;7.134;2023-03-14T11:03:10;8.40;99.90
20068;DHT22;10194;50.824;7.134;2023-03-14T11:05:51;8.40;99.90
20068;DHT22;10194;50.824;7.134;2023-03-14T11:08:30;8.40;99.90
20068;DHT22;10194;50.824;7.134;2023-03-14T11:11:19;8.40;99.90
20068;DHT22;10194;50.824;7.134;2023-03-14T11:13:54;8.40;99.90
20068;DHT22;10194;50.824;7.134;2023-03-14T11:27:28;8.40;99.90
20068;DHT22;10194;50.824;7.134;2023-03-14T11:33:13;8.60;99.90
20068;DHT22;10194;50.824;7.134;2023-03-14T11:36:08;8.70;99.90
20068;DHT22;10194;50.824;7.134;2023-03-14T11:41:41;8.90;99.90
20068;DHT22;10194;50.824;7.134;2023-03-14T11:44:30;8.90;99.90
20068;DHT22;10194;50.824;7.134;2023-03-14T11:47:06;8.80;99.90
20068;DHT22;10194;50.824;7.134;2023-03-14T11:50:01;9.00;99.90
20068;DHT22;10194;50.824;7.134;2023-03-14T11:53:11;9.30;99.90
20068;DHT22;10194;50.824;7.134;2023-03-14T11:55:42;9.50;99.90
20068;DHT22;10194;50.824;7.134;2023-03-14T11:58:16;9.60;99.90
20068;DHT22;10194;50.824;7.134;2023-03-14T12:00:47;9.80;99.90
20068;DHT22;10194;50.824;7.134;2023-03-14T12:09:13;7.60;99.90
20068;DHT22;10194;50.824;7.134;2023-03-14T12:11:44;7.00;99.90
20068;DHT22;10194;50.824;7.134;2023-03-14T12:14:26;6.80;99.90
20068;DHT22;10194;50.824;7.134;2023-03-14T12:25:23;7.40;99.90
20068;DHT22;10194;50.824;7.134;2023-03-14T12:30:41;7.40;99.90
20068;DHT22;10194;50.824;7.134;2023-03-14T12:33:29;7.40;99.90
20068;DHT22;10194;50.824;7.134;2023-03-14T12:36:00;7.50;99.90
20068;DHT22;10194;50.824;7.134;2023-03-14T12:38:40;7.40;99.90
20068;DHT22;10194;50.824;7.134;2023-03-14T12:41:18;7.40;99.90
20068;DHT22;10194;50.824;7.134;2023-03-14T12:43:45;7.40;99.90
20068;DHT22;10194;50.824;7.134;2023-03-14T12:49:03;7.30;99.90
20068;DHT22;10194;50.824;7.134;2023-03-14T12:51:38;7.30;99.90
20068;DHT22;10194;50.824;7.134;2023-03-14T12:54:29;7.30;99.90
20068;DHT22;10194;50.824;7.134;2023-03-14T12:59:33;7.20;99.90
20068;DHT22;10194;50.824;7.134;2023-03-14T13:07:33;7.30;99.90
20068;DHT22;10194;50.824;7.134;2023-03-14T13:13:02;7.60;99.90
20068;DHT22;10194;50.824;7.134;2023-03-14T13:15:39;7.60;99.90
20068;DHT22;10194;50.824;7.134;2023-03-14T13:18:19;7.60;99.90
20068;DHT22;10194;50.824;7.134;2023-03-14T13:21:19;7.70;99.90
20068;DHT22;10194;50.824;7.134;2023-03-14T13:24:01;7.80;99.90
20068;DHT22;10194;50.824;7.134;2023-03-14T13:26:42;7.70;99.90
20068;DHT22;10194;50.824;7.134;2023-03-14T13:29:24;7.60;99.90
20068;DHT22;10194;50.824;7.134;2023-03-14T13:31:53;7.60;99.90
20068;DHT22;10194;50.824;7.134;2023-03-14T13:34:28;7.60;99.90
20068;DHT22;10194;50.824;7.134;2023-03-14T13:36:58;7.60;99.90
20068;DHT22;10194;50.824;7.134;2023-03-14T13:39:26;7.50;99.90
20068;DHT22;10194;50.824;7.134;2023-03-14T13:41:58;7.60;99.90
20068;DHT22;10194;50.824;7.134;2023-03-14T13:44:34;7.50;99.90
20068;DHT22;10194;50.824;7.134;2023-03-14T13:47:03;7.70;99.90
20068;DHT22;10194;50.824;7.134;2023-03-14T13:49:32;7.90;99.90
20068;DHT22;10194;50.824;7.134;2023-03-14T13:52:01;8.00;99.90
20068;DHT22;10194;50.824;7.134;2023-03-14T13:54:28;8.20;99.90
20068;DHT22;10194;50.824;7.134;2023-03-14T13:57:01;8.30;99.90
20068;DHT22;10194;50.824;7.134;2023-03-14T13:59:32;8.40;99.90
20068;DHT22;10194;50.824;7.134;2023-03-14T14:02:03;8.30;99.90
20068;DHT22;10194;50.824;7.134;2023-03-14T14:04:36;8.10;99.90
20068;DHT22;10194;50.824;7.134;2023-03-14T14:07:08;7.80;99.90
20068;DHT22;10194;50.824;7.134;2023-03-14T14:09:43;7.70;99.90
20068;DHT22;10194;50.824;7.134;2023-03-14T14:12:22;7.40;99.90
20068;DHT22;10194;50.824;7.134;2023-03-14T14:15:20;7.30;99.90
20068;DHT22;10194;50.824;7.134;2023-03-14T14:17:56;7.30;99.90
20068;DHT22;10194;50.824;7.134;2023-03-14T14:20:37;7.20;99.90
20068;DHT22;10194;50.824;7.134;2023-03-14T14:23:16;7.20;99.90
20068;DHT22;10194;50.824;7.134;2023-03-14T14:25:45;7.20;99.90
20068;DHT22;10194;50.824;7.134;2023-03-14T14:28:30;7.10;99.90
20068;DHT22;10194;50.824;7.134;2023-03-14T14:31:05;7.10;99.90
20068;DHT22;10194;50.824;7.134;2023-03-14T14:33:39;7.10;99.90
20068;DHT22;10194;50.824;7.134;2023-03-14T14:36:17;7.20;99.90
20068;DHT22;10194;50.824;7.134;2023-03-14T14:38:53;7.20;99.90
20068;DHT22;10194;50.824;7.134;2023-03-14T14:41:26;7.30;99.90
20068;DHT22;10194;50.824;7.134;2023-03-14T14:43:56;7.20;99.90
20068;DHT22;10194;50.824;7.134;2023-03-14T14:46:26;7.20;99.90
20068;DHT22;10194;50.824;7.134;2023-03-14T14:49:09;7.20;99.90
20068;DHT22;10194;50.824;7.134;2023-03-14T14:52:03;7.10;99.90
20068;DHT22;10194;50.824;7.134;2023-03-14T14:54:34;7.10;99.90
20068;DHT22;10194;50.824;7.134;2023-03-14T14:57:04;7.10;99.90
20068;DHT22;10194;50.824;7.134;2023-03-14T14:59:42;7.10;99.90
20068;DHT22;10194;50.824;7.134;2023-03-14T15:02:35;7.00;99.90
20068;DHT22;10194;50.824;7.134;2023-03-14T15:05:36;7.00;99.90
20068;DHT22;10194;50.824;7.134;2023-03-14T15:08:09;7.10;99.90
20068;DHT22;10194;50.824;7.134;2023-03-14T15:10:35;7.20;99.90
20068;DHT22;10194;50.824;7.134;2023-03-14T15:13:01;7.30;99.90
20068;DHT22;10194;50.824;7.134;2023-03-14T15:15:27;7.40;99.90
20068;DHT22;10194;50.824;7.134;2023-03-14T15:17:52;7.40;99.90
20068;DHT22;10194;50.824;7.134;2023-03-14T15:20:18;7.40;99.90
20068;DHT22;10194;50.824;7.134;2023-03-14T15:22:45;7.30;99.90
20068;DHT22;10194;50.824;7.134;2023-03-14T15:25:12;7.20;99.90
20068;DHT22;10194;50.824;7.134;2023-03-14T15:27:38;7.20;99.90
20068;DHT22;10194;50.824;7.134;2023-03-14T15:30:14;7.30;99.90
20068;DHT22;10194;50.824;7.134;2023-03-14T15:32:41;7.30;99.90
20068;DHT22;10194;50.824;7.134;2023-03-14T15:35:07;7.30;99.90
20068;DHT22;10194;50.824;7.134;2023-03-14T15:37:34;7.30;99.90
20068;DHT22;10194;50.824;7.134;2023-03-14T15:40:01;7.40;99.90
20068;DHT22;10194;50.824;7.134;2023-03-14T15:42:29;7.30;99.90
20068;DHT22;10194;50.824;7.134;2023-03-14T15:44:55;7.40;99.90
20068;DHT22;10194;50.824;7.134;2023-03-14T15:47:21;7.40;99.90
20068;DHT22;10194;50.824;7.134;2023-03-14T15:49:47;7.50;99.90
20068;DHT22;10194;50.824;7.134;2023-03-14T15:52:13;7.50;99.90
20068;DHT22;10194;50.824;7.134;2023-03-14T15:54:38;7.50;99.90
20068;DHT22;10194;50.824;7.134;2023-03-14T15:57:04;7.50;99.90
20068;DHT22;10194;50.824;7.134;2023-03-14T15:59:31;7.60;99.90
20068;DHT22;10194;50.824;7.134;2023-03-14T16:01:57;7.60;99.90
20068;DHT22;10194;50.824;7.134;2023-03-14T16:04:23;7.60;99.90
20068;DHT22;10194;50.824;7.134;2023-03-14T16:06:49;7.60;99.90
20068;DHT22;10194;50.824;7.134;2023-03-14T16:09:14;7.60;99.90
20068;DHT22;10194;50.824;7.134;2023-03-14T16:11:40;7.50;99.90
20068;DHT22;10194;50.824;7.134;2023-03-14T16:14:06;7.40;99.90
20068;DHT22;10194;50.824;7.134;2023-03-14T16:16:32;7.30;99.90
20068;DHT22;10194;50.824;7.134;2023-03-14T16:18:58;7.20;99.90
20068;DHT22;10194;50.824;7.134;2023-03-14T16:21:23;7.10;99.90
20068;DHT22;10194;50.824;7.134;2023-03-14T16:23:49;7.10;99.90
20068;DHT22;10194;50.824;7.134;2023-03-14T16:26:17;7.10;99.90
20068;DHT22;10194;50.824;7.134;2023-03-14T16:28:45;7.10;99.90
20068;DHT22;10194;50.824;7.134;2023-03-14T16:31:13;7.00;99.90
20068;DHT22;10194;50.824;7.134;2023-03-14T16:33:41;7.00;99.90
20068;DHT22;10194;50.824;7.134;2023-03-14T16:36:09;7.00;99.90
20068;DHT22;10194;50.824;7.134;2023-03-14T16:38:38;7.00;99.90
20068;DHT22;10194;50.824;7.134;2023-03-14T16:41:25;7.00;99.90
20068;DHT22;10194;50.824;7.134;2023-03-14T16:43:57;6.90;99.90
20068;DHT22;10194;50.824;7.134;2023-03-14T16:46:23;6.90;99.90
20068;DHT22;10194;50.824;7.134;2023-03-14T16:48:51;6.90;99.90
20068;DHT22;10194;50.824;7.134;2023-03-14T16:51:17;6.80;99.90
20068;DHT22;10194;50.824;7.134;2023-03-14T16:53:44;6.80;99.90
20068;DHT22;10194;50.824;7.134;2023-03-14T16:56:10;6.80;99.90
20068;DHT22;10194;50.824;7.134;2023-03-14T16:58:36;6.80;99.90